createdAt,value
2022-08-07T00:01:43.951Z,99.90
2022-08-07T00:04:09.544Z,99.90
2022-08-07T00:06:51.702Z,99.90
2022-08-07T00:09:35.529Z,99.90
2022-08-07T00:12:10.840Z,99.90
2022-08-07T00:14:46.030Z,99.90
2022-08-07T00:17:23.486Z,99.90
2022-08-07T00:20:03.285Z,99.90
2022-08-07T00:22:40.270Z,99.90
2022-08-07T00:25:17.400Z,99.90
2022-08-07T00:27:56.588Z,99.90
2022-08-07T00:30:30.840Z,99.90
2022-08-07T00:33:08.566Z,99.90
2022-08-07T00:35:49.436Z,99.90
2022-08-07T00:38:31.183Z,99.90
2022-08-07T00:41:10.020Z,99.90
2022-08-07T00:44:01.889Z,99.90
2022-08-07T00:46:37.441Z,99.90
2022-08-07T00:49:24.946Z,99.90
2022-08-07T00:52:12.622Z,99.90
2022-08-07T00:54:47.510Z,99.90
2022-08-07T00:57:28.770Z,99.90
2022-08-07T01:00:08.795Z,99.90
2022-08-07T01:02:46.447Z,99.90
2022-08-07T01:05:20.240Z,99.90
2022-08-07T01:08:01.879Z,99.90
2022-08-07T01:10:36.153Z,99.90
2022-08-07T01:13:10.979Z,99.90
2022-08-07T01:16:05.094Z,99.90
2022-08-07T01:18:40.647Z,99.90
2022-08-07T01:21:22.646Z,99.90
2022-08-07T01:24:02.276Z,99.90
2022-08-07T01:26:37.025Z,99.90
2022-08-07T01:29:13.058Z,99.90
2022-08-07T01:31:48.102Z,99.90
2022-08-07T01:34:30.056Z,99.90
2022-08-07T01:37:12.392Z,99.90
2022-08-07T01:39:48.633Z,99.90
2022-08-07T01:42:39.262Z,99.90
2022-08-07T01:45:37.189Z,99.90
2022-08-07T01:48:30.931Z,99.90
2022-08-07T01:52:01.019Z,99.90
2022-08-07T01:54:19.177Z,99.90
2022-08-07T01:57:04.943Z,99.90
2022-08-07T01:59:45.974Z,99.90
2022-08-07T02:03:18.060Z,99.90
2022-08-07T02:05:47.804Z,99.90
2022-08-07T02:08:31.292Z,99.90
2022-08-07T02:11:10.441Z,99.90
2022-08-07T02:14:04.318Z,99.90
2022-08-07T02:16:41.650Z,99.90
2022-08-07T02:20:05.510Z,99.90
2022-08-07T02:22:12.093Z,99.90
2022-08-07T02:24:48.598Z,99.90
2022-08-07T02:27:25.337Z,99.90
2022-08-07T02:30:00.066Z,99.90
2022-08-07T02:33:00.667Z,99.90
2022-08-07T02:36:28.235Z,99.90
2022-08-07T02:38:38.775Z,99.90
2022-08-07T02:41:14.025Z,99.90
2022-08-07T02:44:00.395Z,99.90
2022-08-07T02:46:37.968Z,99.90
2022-08-07T02:49:55.980Z,99.90
2022-08-07T02:52:22.482Z,99.90
2022-08-07T02:55:27.736Z,99.90
2022-08-07T02:58:06.329Z,99.90
2022-08-07T03:00:48.498Z,99.90
2022-08-07T03:03:25.013Z,99.90
2022-08-07T03:06:04.531Z,99.90
2022-08-07T03:08:52.052Z,99.90
2022-08-07T03:11:28.108Z,99.90
2022-08-07T03:14:04.468Z,99.90
2022-08-07T03:16:43.005Z,99.90
2022-08-07T03:19:18.133Z,99.90
2022-08-07T03:21:54.832Z,99.90
2022-08-07T03:24:30.598Z,99.90
2022-08-07T03:27:09.462Z,99.90
2022-08-07T03:29:51.071Z,99.90
2022-08-07T03:32:34.423Z,99.90
2022-08-07T03:35:17.854Z,99.90
2022-08-07T03:37:56.639Z,99.90
2022-08-07T03:40:37.908Z,99.90
2022-08-07T03:43:21.181Z,99.90
2022-08-07T03:46:01.633Z,99.90
2022-08-07T03:49:02.238Z,99.90
2022-08-07T03:51:47.080Z,99.90
2022-08-07T03:54:35.624Z,99.90
2022-08-07T03:58:32.573Z,99.90
2022-08-07T04:00:15.630Z,99.90
2022-08-07T04:02:49.491Z,99.90
2022-08-07T04:05:42.477Z,99.90
2022-08-07T04:08:26.799Z,99.90
2022-08-07T04:12:24.219Z,99.90
2022-08-07T04:14:09.185Z,99.90
2022-08-07T04:16:58.609Z,99.90
2022-08-07T04:19:52.877Z,99.90
2022-08-07T04:22:30.554Z,99.90
2022-08-07T04:25:12.787Z,99.90
2022-08-07T04:27:59.326Z,99.90
2022-08-07T04:30:43.744Z,99.90
2022-08-07T04:33:36.977Z,99.90
2022-08-07T04:36:11.412Z,99.90
2022-08-07T04:38:50.698Z,99.90
2022-08-07T04:41:29.983Z,99.90
2022-08-07T04:44:18.686Z,99.90
2022-08-07T04:47:03.810Z,99.90
2022-08-07T04:49:58.001Z,99.90
2022-08-07T04:52:51.404Z,99.90
2022-08-07T04:58:10.821Z,99.90
2022-08-07T04:58:47.680Z,99.90
2022-08-07T05:01:30.211Z,99.90
2022-08-07T05:04:12.335Z,99.90
2022-08-07T05:06:53.463Z,99.90
2022-08-07T05:09:46.181Z,99.90
2022-08-07T05:12:30.493Z,99.90
2022-08-07T05:15:21.622Z,99.90
2022-08-07T05:18:08.625Z,99.90
2022-08-07T05:20:50.235Z,99.90
2022-08-07T05:23:30.023Z,99.90
2022-08-07T05:26:13.607Z,99.90
2022-08-07T05:28:56.345Z,99.90
2022-08-07T05:31:38.638Z,99.90
2022-08-07T05:34:19.811Z,99.90
2022-08-07T05:37:01.052Z,99.90
2022-08-07T05:40:05.925Z,99.90
2022-08-07T05:42:40.828Z,99.90
2022-08-07T05:45:46.129Z,99.90
2022-08-07T05:48:17.854Z,99.90
2022-08-07T05:51:01.481Z,99.90
2022-08-07T05:54:11.955Z,99.90
2022-08-07T05:56:35.099Z,99.90
2022-08-07T05:59:12.675Z,99.90
2022-08-07T06:01:50.134Z,99.90
2022-08-07T06:04:30.081Z,99.90
2022-08-07T06:07:08.063Z,99.90
2022-08-07T06:10:04.605Z,99.90
2022-08-07T06:12:42.227Z,99.90
2022-08-07T06:15:19.672Z,99.90
2022-08-07T06:18:00.125Z,99.90
2022-08-07T06:20:51.116Z,99.90
2022-08-07T06:24:38.269Z,99.90
2022-08-07T06:26:31.751Z,99.90
2022-08-07T06:29:08.015Z,99.90
2022-08-07T06:31:49.674Z,99.90
2022-08-07T06:34:31.650Z,99.90
2022-08-07T06:37:08.119Z,99.90
2022-08-07T06:40:16.506Z,99.90
2022-08-07T06:42:42.891Z,99.90
2022-08-07T06:45:35.701Z,99.90
2022-08-07T06:48:12.447Z,99.90
2022-08-07T06:50:55.529Z,99.90
2022-08-07T06:55:27.974Z,99.90
2022-08-07T06:56:39.300Z,99.90
2022-08-07T07:00:14.351Z,99.90
2022-08-07T07:02:54.402Z,99.90
2022-08-07T07:06:05.554Z,99.90
2022-08-07T07:08:29.180Z,99.90
2022-08-07T07:11:14.534Z,99.90
2022-08-07T07:14:05.051Z,99.90
2022-08-07T07:16:49.683Z,99.90
2022-08-07T07:19:55.407Z,99.90
2022-08-07T07:22:39.940Z,99.90
2022-08-07T07:26:32.325Z,99.90
2022-08-07T07:28:29.942Z,99.90
2022-08-07T07:31:21.571Z,97.80
2022-08-07T07:33:57.628Z,97.80
2022-08-07T07:36:32.884Z,96.70
2022-08-07T07:39:10.192Z,96.40
2022-08-07T07:42:02.085Z,94.40
2022-08-07T07:44:44.628Z,94.50
2022-08-07T07:47:24.318Z,94.50
2022-08-07T07:50:32.964Z,93.50
2022-08-07T07:52:53.957Z,92.60
2022-08-07T07:55:37.487Z,92.60
2022-08-07T07:58:23.220Z,91.60
2022-08-07T08:02:01.811Z,92.10
2022-08-07T08:04:10.121Z,90.80
2022-08-07T08:06:51.928Z,91.00
2022-08-07T08:09:29.117Z,91.00
2022-08-07T08:12:05.133Z,90.00
2022-08-07T08:14:43.679Z,89.80
2022-08-07T08:17:57.068Z,88.80
2022-08-07T08:20:23.231Z,88.80
2022-08-07T08:23:14.285Z,86.70
2022-08-07T08:26:13.154Z,87.50
2022-08-07T08:28:48.304Z,85.30
2022-08-07T08:31:58.587Z,79.90
2022-08-07T08:34:39.345Z,83.60
2022-08-07T08:37:59.163Z,84.40
2022-08-07T08:40:16.301Z,82.20
2022-08-07T08:42:59.475Z,85.00
2022-08-07T08:45:41.872Z,82.30
2022-08-07T08:48:32.552Z,83.30
2022-08-07T08:51:49.222Z,83.20
2022-08-07T08:54:13.127Z,82.40
2022-08-07T08:56:50.506Z,82.10
2022-08-07T08:59:30.109Z,82.50
2022-08-07T09:02:35.246Z,80.60
2022-08-07T09:05:36.854Z,81.40
2022-08-07T09:08:24.377Z,79.00
2022-08-07T09:11:14.008Z,79.30
2022-08-07T09:14:06.419Z,80.50
2022-08-07T09:16:48.837Z,77.90
2022-08-07T09:19:53.773Z,79.80
2022-08-07T09:24:31.146Z,79.20
2022-08-07T09:25:42.646Z,78.20
2022-08-07T09:30:04.693Z,77.90
2022-08-07T09:31:38.608Z,79.20
2022-08-07T09:34:16.998Z,78.10
2022-08-07T09:36:57.778Z,77.40
2022-08-07T09:39:55.249Z,77.50
2022-08-07T09:42:42.113Z,78.40
2022-08-07T09:47:50.785Z,77.70
2022-08-07T09:48:43.948Z,74.40
2022-08-07T09:52:10.322Z,75.00
2022-08-07T09:54:36.520Z,75.20
2022-08-07T09:57:36.774Z,76.90
2022-08-07T10:00:20.535Z,74.90
2022-08-07T10:04:05.371Z,75.90
2022-08-07T10:06:24.599Z,76.80
2022-08-07T10:09:34.331Z,77.30
2022-08-07T10:12:19.705Z,76.00
2022-08-07T10:15:15.464Z,75.80
2022-08-07T10:18:03.793Z,74.40
2022-08-07T10:20:44.408Z,76.20
2022-08-07T10:24:05.346Z,75.50
2022-08-07T10:26:40.458Z,74.70
2022-08-07T10:29:30.399Z,75.80
2022-08-07T10:32:36.738Z,76.90
2022-08-07T10:35:20.320Z,78.00
2022-08-07T10:38:20.824Z,79.00
2022-08-07T10:41:03.681Z,79.80
2022-08-07T10:43:39.289Z,80.50
2022-08-07T10:46:16.801Z,79.10
2022-08-07T10:49:01.218Z,80.70
2022-08-07T10:52:02.412Z,78.90
2022-08-07T10:54:39.117Z,78.50
2022-08-07T10:57:17.170Z,77.70
2022-08-07T11:00:36.447Z,79.40
2022-08-07T11:03:03.424Z,78.70
2022-08-07T11:05:51.236Z,77.40
2022-08-07T11:08:36.012Z,78.90
2022-08-07T11:11:16.336Z,77.50
2022-08-07T11:14:44.700Z,77.70
2022-08-07T11:16:55.753Z,78.80
2022-08-07T11:19:34.734Z,78.60
2022-08-07T11:22:27.437Z,77.70
2022-08-07T11:25:06.716Z,77.40
2022-08-07T11:28:01.714Z,77.90
2022-08-07T11:30:43.606Z,78.40
2022-08-07T11:33:53.580Z,77.90
2022-08-07T11:36:41.763Z,78.30
2022-08-07T11:39:19.976Z,78.60
2022-08-07T11:42:03.476Z,77.80
2022-08-07T11:44:51.995Z,76.70
2022-08-07T11:47:38.922Z,79.10
2022-08-07T11:50:36.084Z,77.00
2022-08-07T11:53:23.105Z,77.20
2022-08-07T11:56:27.251Z,77.50
2022-08-07T12:00:07.806Z,78.60
2022-08-07T12:02:17.917Z,78.90
2022-08-07T12:05:15.109Z,80.30
2022-08-07T12:08:03.973Z,79.30
2022-08-07T12:10:42.005Z,78.20
2022-08-07T12:13:35.524Z,77.20
2022-08-07T12:16:29.876Z,78.70
2022-08-07T12:19:23.063Z,79.00
2022-08-07T12:22:37.904Z,78.80
2022-08-07T12:26:00.920Z,80.30
2022-08-07T12:28:11.133Z,79.60
2022-08-07T12:30:51.402Z,79.20
2022-08-07T12:33:30.860Z,79.10
2022-08-07T12:36:33.049Z,77.90
2022-08-07T12:39:41.923Z,78.30
2022-08-07T12:42:03.493Z,78.00
2022-08-07T12:44:45.116Z,77.60
2022-08-07T12:47:26.805Z,78.40
2022-08-07T12:50:33.777Z,78.20
2022-08-07T12:53:17.908Z,77.70
2022-08-07T12:56:09.291Z,77.30
2022-08-07T12:58:53.162Z,77.20
2022-08-07T13:01:38.191Z,77.90
2022-08-07T13:04:37.254Z,79.30
2022-08-07T13:08:13.723Z,78.10
2022-08-07T13:10:52.124Z,77.20
2022-08-07T13:13:46.809Z,76.90
2022-08-07T13:16:29.670Z,76.80
2022-08-07T13:19:21.684Z,77.30
2022-08-07T13:22:12.771Z,76.90
2022-08-07T13:25:02.482Z,77.90
2022-08-07T13:28:12.829Z,78.50
2022-08-07T13:30:41.434Z,78.90
2022-08-07T13:34:31.778Z,79.50
2022-08-07T13:36:20.999Z,79.10
2022-08-07T13:39:11.113Z,78.40
2022-08-07T13:41:54.734Z,79.50
2022-08-07T13:44:34.313Z,79.60
2022-08-07T13:47:15.889Z,79.10
2022-08-07T13:50:36.632Z,77.50
2022-08-07T13:52:59.126Z,81.00
2022-08-07T13:55:37.072Z,79.40
2022-08-07T13:58:27.967Z,79.60
2022-08-07T14:01:12.796Z,79.00
2022-08-07T14:04:06.715Z,78.20
2022-08-07T14:06:45.182Z,79.40
2022-08-07T14:10:17.347Z,78.60
2022-08-07T14:12:27.644Z,77.70
2022-08-07T14:15:05.523Z,75.90
2022-08-07T14:18:24.492Z,76.60
2022-08-07T14:20:43.381Z,79.40
2022-08-07T14:23:31.462Z,78.50
2022-08-07T14:26:30.077Z,77.60
2022-08-07T14:30:02.937Z,78.10
2022-08-07T14:32:04.471Z,79.00
2022-08-07T14:34:45.456Z,79.50
2022-08-07T14:37:36.286Z,79.00
2022-08-07T14:40:16.566Z,78.00
2022-08-07T14:46:02.359Z,80.30
2022-08-07T14:48:40.199Z,78.60
2022-08-07T14:51:15.553Z,78.60
2022-08-07T14:54:09.791Z,79.00
2022-08-07T14:56:47.315Z,79.60
2022-08-07T15:02:32.090Z,78.20
2022-08-07T15:08:07.055Z,80.10
2022-08-07T15:10:58.708Z,79.90
2022-08-07T15:13:36.941Z,77.70
2022-08-07T15:16:19.771Z,79.20
2022-08-07T15:19:05.260Z,78.90
2022-08-07T15:21:58.540Z,78.90
2022-08-07T15:25:15.377Z,78.50
2022-08-07T15:27:33.012Z,79.20
2022-08-07T15:30:16.680Z,79.90
2022-08-07T15:33:03.691Z,82.30
2022-08-07T15:36:02.224Z,80.80
2022-08-07T15:38:51.878Z,80.40
2022-08-07T15:42:44.418Z,81.60
2022-08-07T15:44:24.628Z,81.30
2022-08-07T15:47:03.678Z,80.70
2022-08-07T15:50:05.215Z,82.30
2022-08-07T15:52:41.242Z,80.70
2022-08-07T15:55:16.191Z,80.20
2022-08-07T15:58:00.247Z,80.80
2022-08-07T16:00:40.076Z,82.70
2022-08-07T16:03:21.436Z,79.90
2022-08-07T16:06:13.095Z,80.80
2022-08-07T16:08:53.062Z,81.10
2022-08-07T16:11:32.554Z,81.60
2022-08-07T16:14:19.263Z,80.20
2022-08-07T16:17:14.915Z,80.40
2022-08-07T16:20:00.141Z,81.60
2022-08-07T16:22:55.566Z,81.60
2022-08-07T16:25:56.133Z,81.20
2022-08-07T16:30:08.573Z,83.30
2022-08-07T16:31:57.737Z,81.90
2022-08-07T16:34:51.264Z,81.70
2022-08-07T16:38:05.621Z,81.50
2022-08-07T16:41:12.244Z,82.40
2022-08-07T16:44:02.749Z,82.00
2022-08-07T16:47:28.929Z,82.40
2022-08-07T16:50:39.363Z,83.30
2022-08-07T16:54:02.798Z,82.90
2022-08-07T16:56:58.603Z,82.30
2022-08-07T16:59:46.015Z,82.10
2022-08-07T17:02:53.251Z,82.00
2022-08-07T17:06:20.099Z,82.80
2022-08-07T17:09:10.934Z,82.20
2022-08-07T17:12:04.728Z,82.30
2022-08-07T17:14:56.164Z,83.30
2022-08-07T17:17:46.068Z,83.00
2022-08-07T17:20:29.950Z,83.60
2022-08-07T17:23:08.621Z,83.10
2022-08-07T17:25:53.813Z,83.40
2022-08-07T17:28:31.126Z,83.30
2022-08-07T17:31:16.559Z,84.00
2022-08-07T17:34:18.306Z,84.10
2022-08-07T17:36:57.964Z,84.30
2022-08-07T17:39:58.531Z,84.50
2022-08-07T17:42:58.515Z,84.50
2022-08-07T17:45:35.143Z,84.90
2022-08-07T17:48:14.916Z,85.00
2022-08-07T17:51:04.303Z,85.50
2022-08-07T17:54:01.700Z,85.80
2022-08-07T17:56:49.894Z,86.10
2022-08-07T17:59:35.987Z,86.30
2022-08-07T18:02:14.659Z,86.30
2022-08-07T18:04:57.307Z,86.80
2022-08-07T18:07:43.913Z,87.40
2022-08-07T18:10:29.225Z,87.80
2022-08-07T18:13:23.082Z,87.90
2022-08-07T18:16:09.389Z,88.00
2022-08-07T18:21:03.993Z,88.80
2022-08-07T18:22:02.432Z,89.40
2022-08-07T18:24:40.575Z,90.00
2022-08-07T18:27:52.232Z,89.90
2022-08-07T18:30:30.778Z,90.00
2022-08-07T18:33:28.951Z,90.10
2022-08-07T18:36:09.633Z,90.20
2022-08-07T18:40:05.219Z,90.30
2022-08-07T18:42:00.816Z,90.50
2022-08-07T18:45:44.277Z,90.90
2022-08-07T18:47:45.253Z,90.90
2022-08-07T18:50:51.212Z,91.30
2022-08-07T18:53:36.730Z,91.50
2022-08-07T18:56:17.260Z,91.50
2022-08-07T18:59:08.325Z,91.80
2022-08-07T19:02:18.230Z,91.90
2022-08-07T19:05:15.022Z,92.00
2022-08-07T19:07:58.662Z,92.10
2022-08-07T19:10:51.231Z,92.10
2022-08-07T19:13:32.331Z,92.30
2022-08-07T19:16:43.640Z,92.30
2022-08-07T19:19:00.725Z,92.30
2022-08-07T19:21:53.379Z,92.70
2022-08-07T19:24:43.492Z,93.10
2022-08-07T19:28:57.638Z,93.00
2022-08-07T19:31:06.291Z,93.60
2022-08-07T19:33:17.834Z,93.90
2022-08-07T19:35:56.853Z,94.60
2022-08-07T19:38:33.404Z,93.80
2022-08-07T19:41:12.761Z,93.60
2022-08-07T19:43:59.935Z,93.70
2022-08-07T19:46:55.840Z,93.80
2022-08-07T19:49:58.402Z,94.00
2022-08-07T19:52:29.974Z,94.20
2022-08-07T19:55:11.067Z,94.00
2022-08-07T19:58:00.141Z,94.00
2022-08-07T20:00:54.152Z,94.10
2022-08-07T20:03:36.264Z,94.10
2022-08-07T20:06:15.495Z,94.50
2022-08-07T20:09:07.674Z,94.60
2022-08-07T20:12:34.764Z,94.70
2022-08-07T20:14:58.585Z,94.70
2022-08-07T20:17:38.659Z,94.90
2022-08-07T20:20:21.867Z,94.80
2022-08-07T20:23:23.095Z,95.00
2022-08-07T20:25:58.767Z,94.80
2022-08-07T20:28:35.286Z,95.10
2022-08-07T20:31:21.340Z,95.30
2022-08-07T20:33:58.737Z,95.60
2022-08-07T20:36:36.325Z,95.70
2022-08-07T20:39:31.099Z,96.00
2022-08-07T20:42:06.478Z,96.20
2022-08-07T20:44:49.511Z,96.60
2022-08-07T20:47:57.487Z,96.90
2022-08-07T20:50:23.833Z,96.70
2022-08-07T20:53:03.038Z,97.60
2022-08-07T20:55:39.389Z,98.20
2022-08-07T20:58:19.590Z,98.40
2022-08-07T21:01:05.995Z,98.80
2022-08-07T21:04:19.892Z,99.10
2022-08-07T21:06:55.000Z,99.70
2022-08-07T21:09:29.609Z,99.90
2022-08-07T21:12:30.746Z,99.90
2022-08-07T21:15:08.947Z,99.90
2022-08-07T21:18:03.076Z,99.90
2022-08-07T21:20:56.086Z,99.90
2022-08-07T21:23:50.672Z,99.90
2022-08-07T21:26:31.315Z,99.90
2022-08-07T21:29:18.485Z,99.90
2022-08-07T21:32:42.730Z,99.90
2022-08-07T21:34:58.880Z,99.90
2022-08-07T21:37:58.324Z,99.90
2022-08-07T21:40:40.296Z,99.90
2022-08-07T21:43:23.129Z,99.90
2022-08-07T21:46:24.995Z,99.90
2022-08-07T21:49:14.465Z,99.90
2022-08-07T21:52:00.950Z,99.90
2022-08-07T21:54:46.002Z,99.90
2022-08-07T21:57:31.340Z,99.90
2022-08-07T22:00:22.834Z,99.90
2022-08-07T22:03:17.074Z,99.90
2022-08-07T22:05:55.952Z,99.90
2022-08-07T22:08:31.601Z,99.90
2022-08-07T22:11:06.093Z,99.90
2022-08-07T22:13:51.363Z,99.90
2022-08-07T22:16:43.194Z,99.90
2022-08-07T22:19:20.081Z,99.90
2022-08-07T22:22:17.804Z,99.90
2022-08-07T22:25:02.935Z,99.90
2022-08-07T22:28:08.171Z,99.90
2022-08-07T22:30:34.756Z,99.90
2022-08-07T22:33:10.900Z,99.90
2022-08-07T22:35:47.455Z,99.90
2022-08-07T22:38:32.185Z,99.90
2022-08-07T22:41:08.973Z,99.90
2022-08-07T22:43:45.551Z,99.90
2022-08-07T22:47:03.860Z,99.90
2022-08-07T22:49:54.541Z,99.90
2022-08-07T22:52:48.476Z,99.90
2022-08-07T22:55:29.716Z,99.90
2022-08-07T22:58:34.269Z,99.90
2022-08-07T23:01:30.479Z,99.90
2022-08-07T23:04:29.945Z,99.90
2022-08-07T23:07:28.415Z,99.90
2022-08-07T23:10:37.463Z,99.90
2022-08-07T23:13:20.808Z,99.90
2022-08-07T23:16:48.511Z,99.90
2022-08-07T23:19:47.989Z,99.90
2022-08-07T23:22:25.738Z,99.90
2022-08-07T23:25:12.214Z,99.90
2022-08-07T23:28:22.717Z,99.90
2022-08-07T23:31:06.661Z,99.90
2022-08-07T23:34:36.004Z,99.90
2022-08-07T23:37:19.399Z,99.90
2022-08-07T23:40:02.447Z,99.90
2022-08-07T23:42:36.756Z,99.90
2022-08-07T23:45:33.573Z,99.90
2022-08-07T23:48:26.792Z,99.90
2022-08-07T23:51:02.608Z,99.90
2022-08-07T23:53:49.466Z,99.90
2022-08-07T23:56:31.306Z,99.90
